createdAt,value
2023-02-11T00:00:25.733Z,4.82
2023-02-11T00:02:52.293Z,5.15
2023-02-11T00:05:18.863Z,5.88
2023-02-11T00:07:45.514Z,5.10
2023-02-11T00:10:14.637Z,5.57
2023-02-11T00:12:42.585Z,6.28
2023-02-11T00:15:09.998Z,5.10
2023-02-11T00:17:36.552Z,5.40
2023-02-11T00:20:03.368Z,5.03
2023-02-11T00:22:32.233Z,4.80
2023-02-11T00:24:58.868Z,5.20
2023-02-11T00:27:27.951Z,4.47
2023-02-11T00:29:54.669Z,4.93
2023-02-11T00:32:21.203Z,5.40
2023-02-11T00:34:47.881Z,4.40
2023-02-11T00:37:14.456Z,5.15
2023-02-11T00:39:41.002Z,4.63
2023-02-11T00:42:07.578Z,4.60
2023-02-11T00:44:34.121Z,5.03
2023-02-11T00:47:00.654Z,4.15
2023-02-11T00:49:27.327Z,4.15
2023-02-11T00:51:53.921Z,4.63
2023-02-11T00:54:20.544Z,4.90
2023-02-11T00:56:47.142Z,4.40
2023-02-11T00:59:13.737Z,4.43
2023-02-11T01:01:40.487Z,5.13
2023-02-11T01:04:07.100Z,4.68
2023-02-11T01:06:33.764Z,4.40
2023-02-11T01:09:03.323Z,4.40
2023-02-11T01:11:29.947Z,4.40
2023-02-11T01:13:59.055Z,3.88
2023-02-11T01:16:25.779Z,4.22
2023-02-11T01:18:52.403Z,4.20
2023-02-11T01:21:19.534Z,4.72
2023-02-11T01:23:46.224Z,4.10
2023-02-11T01:26:13.029Z,3.92
2023-02-11T01:28:40.124Z,4.20
2023-02-11T01:31:06.890Z,4.22
2023-02-11T01:33:35.798Z,4.28
2023-02-11T01:36:04.392Z,4.13
2023-02-11T01:38:31.856Z,4.07
2023-02-11T01:41:05.978Z,4.70
2023-02-11T01:43:37.540Z,4.28
2023-02-11T01:46:16.233Z,4.43
2023-02-11T01:48:48.927Z,4.05
2023-02-11T01:51:23.999Z,4.47
2023-02-11T01:54:12.881Z,4.20
2023-02-11T01:57:03.505Z,4.30
2023-02-11T01:59:36.050Z,5.07
2023-02-11T02:02:08.402Z,4.97
2023-02-11T02:04:43.739Z,4.10
2023-02-11T02:07:22.220Z,4.25
2023-02-11T02:10:01.611Z,4.65
2023-02-11T02:12:28.196Z,4.70
2023-02-11T02:15:27.788Z,4.47
2023-02-11T02:18:03.240Z,4.25
2023-02-11T02:21:06.951Z,4.30
2023-02-11T02:23:50.469Z,4.13
2023-02-11T02:26:39.209Z,4.10
2023-02-11T02:29:33.744Z,4.78
2023-02-11T02:32:30.554Z,5.10
2023-02-11T02:35:04.836Z,4.55
2023-02-11T02:37:38.152Z,4.65
2023-02-11T02:40:15.067Z,4.55
2023-02-11T02:42:44.857Z,4.70
2023-02-11T02:45:13.747Z,5.03
2023-02-11T02:47:40.312Z,4.65
2023-02-11T02:50:08.459Z,4.72
2023-02-11T02:52:53.779Z,5.40
2023-02-11T02:55:58.759Z,5.45
2023-02-11T02:58:31.589Z,5.18
2023-02-11T03:01:10.783Z,4.90
2023-02-11T03:03:52.736Z,6.28
2023-02-11T03:06:48.441Z,5.80
2023-02-11T03:09:32.075Z,5.30
2023-02-11T03:12:01.996Z,5.57
2023-02-11T03:14:32.413Z,6.22
2023-02-11T03:17:03.524Z,5.53
2023-02-11T03:19:46.148Z,6.35
2023-02-11T03:22:27.313Z,6.53
2023-02-11T03:24:56.070Z,5.82
2023-02-11T03:27:46.626Z,6.55
2023-02-11T03:30:28.146Z,6.38
2023-02-11T03:33:05.572Z,6.47
2023-02-11T03:35:52.832Z,6.72
2023-02-11T03:38:33.676Z,6.70
2023-02-11T03:41:05.769Z,6.03
2023-02-11T03:43:41.197Z,6.95
2023-02-11T03:46:10.853Z,6.13
2023-02-11T03:48:44.945Z,7.30
2023-02-11T03:51:13.155Z,7.50
2023-02-11T03:53:44.954Z,8.00
2023-02-11T03:56:17.856Z,7.43
2023-02-11T03:58:50.241Z,7.82
2023-02-11T04:01:16.993Z,7.82
2023-02-11T04:03:43.680Z,9.05
2023-02-11T04:06:12.663Z,8.20
2023-02-11T04:08:39.383Z,7.65
2023-02-11T04:11:08.599Z,8.02
2023-02-11T04:13:35.248Z,8.27
2023-02-11T04:16:02.051Z,7.88
2023-02-11T04:18:28.705Z,8.65
2023-02-11T04:20:58.275Z,7.55
2023-02-11T04:23:25.001Z,8.35
2023-02-11T04:25:52.611Z,7.88
2023-02-11T04:28:19.400Z,7.85
2023-02-11T04:30:46.053Z,7.57
2023-02-11T04:33:15.265Z,8.10
2023-02-11T04:35:44.019Z,8.18
2023-02-11T04:38:10.604Z,7.85
2023-02-11T04:40:37.151Z,8.50
2023-02-11T04:43:03.687Z,7.97
2023-02-11T04:45:30.314Z,8.82
2023-02-11T04:47:56.834Z,8.55
2023-02-11T04:50:26.022Z,8.90
2023-02-11T04:52:52.581Z,7.90
2023-02-11T04:55:19.249Z,8.77
2023-02-11T04:57:45.843Z,8.63
2023-02-11T05:00:17.631Z,8.65
2023-02-11T05:02:46.730Z,9.02
2023-02-11T05:05:15.555Z,8.77
2023-02-11T05:07:42.113Z,9.63
2023-02-11T05:10:11.186Z,8.25
2023-02-11T05:12:37.688Z,8.07
2023-02-11T05:15:04.573Z,8.80
2023-02-11T05:17:33.443Z,8.77
2023-02-11T05:20:00.018Z,8.98
2023-02-11T05:22:28.929Z,9.35
2023-02-11T05:24:55.446Z,9.02
2023-02-11T05:27:21.956Z,9.55
2023-02-11T05:29:48.483Z,9.52
2023-02-11T05:32:15.138Z,9.43
2023-02-11T05:34:41.736Z,9.13
2023-02-11T05:37:08.384Z,8.90
2023-02-11T05:39:34.971Z,9.27
2023-02-11T05:42:01.558Z,9.27
2023-02-11T05:44:28.382Z,9.38
2023-02-11T05:46:54.928Z,9.85
2023-02-11T05:49:21.592Z,10.55
2023-02-11T05:51:48.575Z,10.40
2023-02-11T05:54:15.241Z,9.75
2023-02-11T05:56:44.664Z,9.20
2023-02-11T05:59:13.876Z,9.45
2023-02-11T06:01:43.169Z,10.30
2023-02-11T06:04:12.189Z,10.55
2023-02-11T06:06:38.776Z,10.65
2023-02-11T06:09:07.601Z,9.85
2023-02-11T06:11:34.132Z,10.75
2023-02-11T06:14:03.528Z,11.20
2023-02-11T06:16:30.352Z,11.27
2023-02-11T06:18:56.982Z,11.18
2023-02-11T06:21:26.468Z,11.85
2023-02-11T06:23:59.569Z,12.27
2023-02-11T06:26:26.471Z,12.25
2023-02-11T06:28:53.090Z,12.05
2023-02-11T06:31:20.198Z,12.80
2023-02-11T06:33:50.495Z,12.10
2023-02-11T06:36:19.332Z,13.13
2023-02-11T06:38:47.295Z,13.35
2023-02-11T06:41:16.509Z,12.75
2023-02-11T06:43:43.736Z,12.65
2023-02-11T06:46:12.871Z,13.90
2023-02-11T06:48:39.546Z,14.07
2023-02-11T06:51:09.561Z,13.40
2023-02-11T06:53:41.343Z,14.30
2023-02-11T06:56:11.246Z,13.32
2023-02-11T06:58:38.088Z,14.32
2023-02-11T07:01:06.779Z,14.32
2023-02-11T07:03:38.706Z,13.60
2023-02-11T07:06:07.256Z,14.40
2023-02-11T07:08:35.658Z,15.77
2023-02-11T07:11:08.414Z,15.45
2023-02-11T07:13:34.997Z,15.25
2023-02-11T07:16:10.230Z,15.68
2023-02-11T07:18:36.947Z,16.80
2023-02-11T07:21:12.373Z,16.60
2023-02-11T07:23:41.497Z,15.70
2023-02-11T07:26:10.769Z,18.17
2023-02-11T07:28:38.570Z,16.95
2023-02-11T07:31:15.667Z,17.40
2023-02-11T07:33:43.999Z,17.60
2023-02-11T07:36:18.629Z,17.55
2023-02-11T07:38:45.856Z,18.38
2023-02-11T07:41:17.790Z,17.98
2023-02-11T07:43:44.884Z,18.10
2023-02-11T07:46:21.555Z,18.60
2023-02-11T07:48:48.815Z,17.92
2023-02-11T07:51:21.099Z,17.90
2023-02-11T07:53:48.033Z,19.20
2023-02-11T07:56:16.397Z,18.85
2023-02-11T07:58:43.332Z,19.38
2023-02-11T08:01:15.658Z,17.60
2023-02-11T08:03:44.306Z,19.88
2023-02-11T08:06:14.038Z,19.98
2023-02-11T08:08:40.866Z,18.92
2023-02-11T08:11:15.892Z,21.00
2023-02-11T08:13:43.226Z,19.75
2023-02-11T08:16:17.007Z,20.55
2023-02-11T08:18:43.804Z,19.85
2023-02-11T08:21:10.883Z,20.17
2023-02-11T08:23:39.409Z,19.50
2023-02-11T08:26:09.489Z,20.58
2023-02-11T08:28:37.724Z,19.95
2023-02-11T08:31:09.482Z,19.33
2023-02-11T08:33:36.331Z,20.45
2023-02-11T08:36:09.520Z,20.08
2023-02-11T08:38:36.174Z,20.45
2023-02-11T08:41:05.028Z,21.38
2023-02-11T08:43:33.030Z,22.00
2023-02-11T08:46:02.180Z,20.88
2023-02-11T08:48:32.317Z,20.85
2023-02-11T08:51:02.444Z,21.25
2023-02-11T08:53:31.617Z,20.55
2023-02-11T08:55:58.369Z,21.42
2023-02-11T08:58:27.321Z,19.90
2023-02-11T09:00:54.394Z,20.10
2023-02-11T09:03:21.223Z,20.65
2023-02-11T09:05:55.017Z,21.63
2023-02-11T09:08:21.737Z,20.75
2023-02-11T09:10:49.080Z,20.50
2023-02-11T09:13:16.986Z,20.58
2023-02-11T09:15:46.969Z,21.40
2023-02-11T09:18:14.187Z,21.17
2023-02-11T09:20:43.967Z,22.58
2023-02-11T09:23:11.247Z,20.38
2023-02-11T09:25:41.508Z,20.92
2023-02-11T09:28:11.785Z,20.85
2023-02-11T09:30:38.750Z,20.80
2023-02-11T09:33:05.618Z,19.67
2023-02-11T09:35:33.529Z,20.63
2023-02-11T09:38:01.048Z,20.13
2023-02-11T09:40:28.234Z,20.20
2023-02-11T09:43:12.626Z,19.70
2023-02-11T09:45:39.266Z,19.45
2023-02-11T09:48:16.191Z,18.58
2023-02-11T09:50:47.414Z,19.42
2023-02-11T09:53:41.603Z,19.30
2023-02-11T09:56:15.678Z,20.02
2023-02-11T09:58:44.090Z,19.25
2023-02-11T10:01:21.844Z,19.20
2023-02-11T10:04:16.138Z,19.13
2023-02-11T10:06:55.136Z,17.70
2023-02-11T10:09:37.212Z,18.58
2023-02-11T10:12:26.683Z,18.75
2023-02-11T10:15:16.016Z,18.45
2023-02-11T10:18:03.311Z,18.08
2023-02-11T10:20:45.187Z,17.27
2023-02-11T10:23:27.624Z,16.98
2023-02-11T10:25:56.701Z,17.42
2023-02-11T10:28:31.933Z,18.63
2023-02-11T10:30:58.614Z,18.38
2023-02-11T10:33:30.587Z,17.90
2023-02-11T10:35:57.213Z,17.13
2023-02-11T10:38:23.882Z,17.13
2023-02-11T10:40:50.788Z,17.67
2023-02-11T10:43:22.635Z,17.00
2023-02-11T10:45:54.711Z,17.60
2023-02-11T10:48:44.173Z,17.10
2023-02-11T10:51:12.314Z,16.90
2023-02-11T10:53:40.756Z,17.48
2023-02-11T10:56:10.663Z,17.45
2023-02-11T10:58:54.396Z,17.23
2023-02-11T11:01:24.881Z,16.55
2023-02-11T11:03:55.878Z,16.90
2023-02-11T11:06:33.525Z,16.33
2023-02-11T11:09:04.611Z,15.88
2023-02-11T11:11:50.832Z,14.77
2023-02-11T11:14:29.006Z,15.25
2023-02-11T11:16:58.055Z,16.10
2023-02-11T11:19:25.974Z,14.75
2023-02-11T11:21:56.712Z,15.48
2023-02-11T11:24:31.785Z,15.38
2023-02-11T11:27:02.720Z,15.80
2023-02-11T11:29:35.231Z,14.30
2023-02-11T11:32:46.888Z,14.88
2023-02-11T11:35:37.752Z,15.52
2023-02-11T11:38:05.515Z,14.95
2023-02-11T11:40:34.832Z,14.50
2023-02-11T11:43:04.495Z,15.52
2023-02-11T11:45:34.122Z,14.57
2023-02-11T11:48:22.660Z,15.48
2023-02-11T11:50:53.440Z,15.25
2023-02-11T11:53:36.928Z,14.88
2023-02-11T11:56:09.395Z,15.10
2023-02-11T11:58:36.002Z,13.70
2023-02-11T12:01:08.308Z,14.15
2023-02-11T12:04:02.532Z,14.77
2023-02-11T12:07:06.756Z,15.00
2023-02-11T12:09:55.682Z,14.90
2023-02-11T12:12:32.440Z,15.13
2023-02-11T12:15:24.032Z,14.25
2023-02-11T12:18:17.704Z,14.32
2023-02-11T12:21:24.168Z,14.95
2023-02-11T12:23:50.726Z,14.98
2023-02-11T12:26:23.875Z,14.52
2023-02-11T12:29:17.337Z,15.40
2023-02-11T12:31:53.065Z,15.27
2023-02-11T12:34:49.713Z,15.55
2023-02-11T12:37:41.414Z,15.13
2023-02-11T12:40:26.861Z,13.80
2023-02-11T12:43:20.617Z,14.50
2023-02-11T12:46:04.325Z,15.27
2023-02-11T12:48:55.022Z,15.13
2023-02-11T12:51:40.631Z,16.05
2023-02-11T12:54:12.902Z,15.25
2023-02-11T12:56:43.916Z,15.10
2023-02-11T12:59:37.516Z,14.88
2023-02-11T13:02:21.412Z,14.20
2023-02-11T13:04:58.950Z,15.07
2023-02-11T13:07:36.767Z,15.95
2023-02-11T13:10:23.158Z,15.32
2023-02-11T13:13:10.822Z,15.88
2023-02-11T13:15:37.468Z,15.45
2023-02-11T13:18:13.077Z,16.35
2023-02-11T13:20:57.592Z,16.50
2023-02-11T13:23:36.489Z,16.73
2023-02-11T13:26:21.225Z,15.98
2023-02-11T13:29:09.386Z,15.13
2023-02-11T13:31:36.285Z,15.60
2023-02-11T13:34:03.978Z,16.63
2023-02-11T13:36:33.034Z,15.27
2023-02-11T13:39:02.671Z,15.38
2023-02-11T13:41:30.781Z,14.90
2023-02-11T13:44:22.311Z,13.98
2023-02-11T13:46:53.913Z,13.23
2023-02-11T13:49:29.759Z,13.43
2023-02-11T13:52:00.097Z,14.18
2023-02-11T13:54:35.552Z,14.13
2023-02-11T13:57:36.016Z,14.30
2023-02-11T14:00:33.644Z,12.88
2023-02-11T14:03:31.095Z,12.90
2023-02-11T14:06:28.474Z,14.35
2023-02-11T14:09:10.414Z,13.60
2023-02-11T14:11:40.840Z,14.15
2023-02-11T14:14:23.484Z,13.80
2023-02-11T14:17:01.995Z,13.85
2023-02-11T14:19:33.707Z,13.05
2023-02-11T14:22:04.956Z,12.48
2023-02-11T14:24:34.959Z,13.80
2023-02-11T14:27:04.586Z,14.02
2023-02-11T14:29:58.585Z,13.10
2023-02-11T14:32:28.310Z,13.65
2023-02-11T14:35:13.078Z,12.73
2023-02-11T14:37:55.373Z,13.63
2023-02-11T14:40:36.902Z,13.40
2023-02-11T14:43:23.446Z,13.75
2023-02-11T14:45:54.056Z,13.75
2023-02-11T14:48:27.262Z,13.55
2023-02-11T14:51:13.354Z,13.23
2023-02-11T14:53:45.292Z,13.77
2023-02-11T14:56:31.961Z,14.05
2023-02-11T14:58:59.025Z,14.02
2023-02-11T15:01:35.411Z,13.63
2023-02-11T15:04:04.213Z,14.48
2023-02-11T15:06:38.196Z,14.05
2023-02-11T15:09:37.674Z,13.98
2023-02-11T15:12:04.674Z,14.70
2023-02-11T15:14:35.729Z,13.55
2023-02-11T15:17:05.823Z,14.88
2023-02-11T15:19:42.130Z,14.30
2023-02-11T15:22:18.836Z,14.52
2023-02-11T15:24:45.543Z,14.13
2023-02-11T15:27:18.735Z,15.68
2023-02-11T15:29:49.247Z,14.68
2023-02-11T15:32:17.567Z,15.10
2023-02-11T15:34:46.079Z,14.90
2023-02-11T15:37:16.925Z,14.70
2023-02-11T15:39:43.729Z,13.65
2023-02-11T15:42:25.789Z,15.40
2023-02-11T15:45:26.118Z,15.18
2023-02-11T15:47:56.568Z,14.43
2023-02-11T15:50:26.687Z,15.02
2023-02-11T15:52:55.290Z,15.13
2023-02-11T15:55:22.567Z,14.93
2023-02-11T15:58:01.584Z,14.30
2023-02-11T16:00:38.535Z,14.77
2023-02-11T16:03:05.250Z,15.00
2023-02-11T16:05:38.076Z,16.13
2023-02-11T16:08:26.052Z,15.00
2023-02-11T16:11:08.605Z,14.95
2023-02-11T16:13:55.457Z,14.60
2023-02-11T16:16:29.119Z,14.00
2023-02-11T16:19:05.275Z,13.25
2023-02-11T16:21:45.376Z,13.40
2023-02-11T16:24:24.405Z,14.98
2023-02-11T16:26:55.116Z,14.00
2023-02-11T16:29:39.160Z,13.95
2023-02-11T16:32:24.296Z,14.30
2023-02-11T16:34:52.237Z,13.88
2023-02-11T16:37:19.033Z,13.88
2023-02-11T16:39:45.645Z,14.60
2023-02-11T16:42:14.951Z,13.65
2023-02-11T16:44:43.886Z,13.85
2023-02-11T16:47:20.614Z,13.43
2023-02-11T16:49:47.220Z,14.70
2023-02-11T16:52:19.140Z,13.20
2023-02-11T16:54:45.791Z,13.77
2023-02-11T16:57:21.513Z,13.88
2023-02-11T16:59:48.826Z,13.20
2023-02-11T17:02:30.602Z,13.23
2023-02-11T17:05:06.812Z,13.35
2023-02-11T17:07:33.914Z,13.68
2023-02-11T17:10:05.345Z,13.55
2023-02-11T17:12:34.182Z,12.05
2023-02-11T17:15:00.751Z,11.82
2023-02-11T17:17:28.888Z,11.88
2023-02-11T17:19:55.561Z,12.80
2023-02-11T17:22:22.124Z,12.95
2023-02-11T17:24:48.714Z,11.80
2023-02-11T17:27:15.424Z,12.55
2023-02-11T17:29:44.321Z,11.98
2023-02-11T17:32:15.755Z,11.60
2023-02-11T17:34:42.357Z,11.90
2023-02-11T17:37:11.279Z,11.35
2023-02-11T17:39:40.033Z,11.45
2023-02-11T17:42:09.243Z,11.32
2023-02-11T17:44:35.840Z,12.18
2023-02-11T17:47:04.753Z,12.23
2023-02-11T17:49:31.321Z,13.40
2023-02-11T17:52:00.102Z,13.52
2023-02-11T17:54:26.835Z,12.68
2023-02-11T17:56:58.184Z,12.95
2023-02-11T17:59:26.046Z,12.82
2023-02-11T18:01:52.602Z,12.27
2023-02-11T18:04:22.445Z,13.20
2023-02-11T18:06:50.287Z,14.35
2023-02-11T18:09:16.846Z,13.65
2023-02-11T18:11:43.447Z,13.25
2023-02-11T18:14:10.917Z,12.57
2023-02-11T18:16:43.110Z,11.68
2023-02-11T18:19:11.486Z,12.20
2023-02-11T18:21:40.791Z,11.55
2023-02-11T18:24:09.933Z,11.63
2023-02-11T18:26:38.864Z,11.98
2023-02-11T18:29:06.944Z,12.18
2023-02-11T18:31:35.426Z,11.60
2023-02-11T18:34:07.571Z,11.82
2023-02-11T18:36:37.430Z,10.88
2023-02-11T18:39:04.986Z,12.88
2023-02-11T18:41:31.834Z,11.55
2023-02-11T18:43:58.824Z,10.68
2023-02-11T18:46:30.449Z,11.23
2023-02-11T18:48:57.209Z,14.90
2023-02-11T18:51:24.207Z,16.20
2023-02-11T18:53:50.783Z,16.58
2023-02-11T18:56:20.977Z,14.68
2023-02-11T18:58:48.625Z,13.65
2023-02-11T19:01:22.864Z,12.30
2023-02-11T19:03:50.066Z,11.32
2023-02-11T19:06:20.104Z,11.50
2023-02-11T19:08:46.829Z,11.05
2023-02-11T19:11:14.596Z,12.57
2023-02-11T19:13:43.557Z,11.38
2023-02-11T19:16:11.653Z,11.88
2023-02-11T19:18:38.817Z,12.65
2023-02-11T19:21:12.769Z,11.68
2023-02-11T19:23:39.792Z,12.45
2023-02-11T19:26:08.934Z,12.05
2023-02-11T19:28:37.166Z,12.25
2023-02-11T19:31:08.795Z,12.80
2023-02-11T19:33:37.778Z,13.13
2023-02-11T19:36:09.695Z,11.80
2023-02-11T19:38:38.519Z,12.32
2023-02-11T19:41:05.320Z,11.80
2023-02-11T19:43:31.994Z,12.48
2023-02-11T19:45:58.655Z,11.77
2023-02-11T19:48:27.941Z,11.68
2023-02-11T19:50:55.073Z,11.60
2023-02-11T19:53:24.464Z,12.18
2023-02-11T19:55:51.416Z,11.75
2023-02-11T19:58:18.280Z,12.63
2023-02-11T20:00:47.293Z,12.15
2023-02-11T20:03:16.341Z,11.50
2023-02-11T20:05:47.075Z,11.88
2023-02-11T20:08:14.322Z,10.75
2023-02-11T20:10:40.858Z,12.65
2023-02-11T20:13:07.456Z,12.50
2023-02-11T20:15:36.806Z,12.02
2023-02-11T20:18:03.530Z,12.63
2023-02-11T20:20:30.094Z,11.95
2023-02-11T20:22:58.611Z,12.55
2023-02-11T20:25:25.382Z,12.38
2023-02-11T20:27:54.356Z,12.07
2023-02-11T20:30:21.761Z,11.73
2023-02-11T20:32:50.737Z,12.27
2023-02-11T20:35:19.632Z,11.48
2023-02-11T20:37:46.291Z,12.68
2023-02-11T20:40:13.079Z,11.80
2023-02-11T20:42:40.359Z,12.38
2023-02-11T20:45:11.890Z,12.65
2023-02-11T20:47:42.061Z,11.07
2023-02-11T20:50:11.464Z,11.48
2023-02-11T20:52:38.263Z,11.35
2023-02-11T20:55:05.152Z,11.73
2023-02-11T20:57:31.802Z,11.75
2023-02-11T20:59:58.436Z,12.05
2023-02-11T21:02:27.192Z,13.00
2023-02-11T21:04:59.051Z,12.23
2023-02-11T21:07:29.178Z,12.98
2023-02-11T21:10:00.575Z,13.18
2023-02-11T21:12:27.168Z,12.68
2023-02-11T21:14:56.514Z,13.18
2023-02-11T21:17:23.143Z,12.55
2023-02-11T21:19:52.759Z,12.65
2023-02-11T21:22:19.403Z,11.88
2023-02-11T21:24:48.154Z,13.43
2023-02-11T21:27:17.354Z,12.48
2023-02-11T21:29:54.182Z,12.73
2023-02-11T21:32:21.404Z,12.50
2023-02-11T21:34:47.967Z,12.02
2023-02-11T21:37:14.650Z,11.15
2023-02-11T21:39:42.473Z,11.68
2023-02-11T21:42:09.316Z,11.95
2023-02-11T21:44:35.982Z,11.35
2023-02-11T21:47:05.058Z,11.70
2023-02-11T21:49:31.735Z,11.32
2023-02-11T21:51:58.350Z,11.73
2023-02-11T21:54:29.179Z,11.68
2023-02-11T21:56:59.708Z,11.52
2023-02-11T21:59:26.504Z,10.57
2023-02-11T22:01:53.071Z,12.10
2023-02-11T22:04:19.877Z,12.50
2023-02-11T22:06:51.290Z,12.07
2023-02-11T22:09:20.236Z,11.40
2023-02-11T22:11:49.655Z,13.13
2023-02-11T22:14:16.867Z,11.70
2023-02-11T22:16:45.998Z,11.52
2023-02-11T22:19:12.918Z,12.52
2023-02-11T22:21:40.438Z,12.25
2023-02-11T22:24:07.274Z,11.73
2023-02-11T22:26:33.923Z,12.65
2023-02-11T22:29:00.574Z,11.32
2023-02-11T22:31:33.455Z,11.00
2023-02-11T22:34:01.075Z,11.48
2023-02-11T22:36:35.195Z,11.75
2023-02-11T22:39:04.252Z,11.00
2023-02-11T22:41:31.411Z,11.40
2023-02-11T22:43:58.284Z,11.55
2023-02-11T22:46:25.501Z,12.50
2023-02-11T22:48:52.612Z,12.60
2023-02-11T22:51:22.730Z,12.52
2023-02-11T22:54:11.815Z,11.60
2023-02-11T22:56:38.567Z,12.32
2023-02-11T22:59:07.931Z,12.63
2023-02-11T23:01:35.636Z,11.25
2023-02-11T23:04:04.783Z,11.75
2023-02-11T23:06:31.857Z,11.38
2023-02-11T23:08:58.979Z,11.00
2023-02-11T23:11:28.792Z,11.85
2023-02-11T23:13:56.136Z,11.20
2023-02-11T23:16:28.752Z,10.65
2023-02-11T23:18:55.466Z,11.70
2023-02-11T23:21:26.051Z,11.23
2023-02-11T23:23:58.454Z,10.73
2023-02-11T23:26:25.375Z,10.65
2023-02-11T23:28:52.300Z,10.82
2023-02-11T23:31:31.460Z,11.65
2023-02-11T23:33:58.093Z,11.20
2023-02-11T23:36:24.837Z,11.07
2023-02-11T23:38:51.905Z,11.63
2023-02-11T23:41:19.014Z,11.82
2023-02-11T23:43:50.709Z,10.82
2023-02-11T23:46:19.758Z,11.35
2023-02-11T23:48:46.374Z,11.85
2023-02-11T23:51:15.406Z,12.07
2023-02-11T23:53:45.770Z,12.27
2023-02-11T23:56:20.148Z,11.43
2023-02-11T23:58:49.566Z,12.27
